createdAt,value
2022-08-10T00:01:36.613Z,19.20
2022-08-10T00:04:04.146Z,16.33
2022-08-10T00:06:32.763Z,18.59
2022-08-10T00:08:59.765Z,18.47
2022-08-10T00:11:26.682Z,19.36
2022-08-10T00:13:53.652Z,19.44
2022-08-10T00:16:20.554Z,18.85
2022-08-10T00:18:47.538Z,19.45
2022-08-10T00:21:14.581Z,15.76
2022-08-10T00:23:41.492Z,18.05
2022-08-10T00:26:08.501Z,16.46
2022-08-10T00:28:35.527Z,19.03
2022-08-10T00:31:02.639Z,18.90
2022-08-10T00:33:30.400Z,16.58
2022-08-10T00:35:57.340Z,15.80
2022-08-10T00:38:24.315Z,18.85
2022-08-10T00:40:51.306Z,19.01
2022-08-10T00:43:23.845Z,16.50
2022-08-10T00:45:59.411Z,18.31
2022-08-10T00:48:30.930Z,19.15
2022-08-10T00:50:59.402Z,18.44
2022-08-10T00:53:28.046Z,15.30
2022-08-10T00:56:38.408Z,14.14
2022-08-10T00:58:42.873Z,18.86
2022-08-10T01:01:10.960Z,16.63
2022-08-10T01:04:57.550Z,18.41
2022-08-10T01:07:11.307Z,18.64
2022-08-10T01:09:57.231Z,17.99
2022-08-10T01:12:47.663Z,18.56
2022-08-10T01:15:22.732Z,15.82
2022-08-10T01:17:53.106Z,17.47
2022-08-10T01:20:40.185Z,18.36
2022-08-10T01:23:25.468Z,18.34
2022-08-10T01:26:30.553Z,18.30
2022-08-10T01:29:04.459Z,18.26
2022-08-10T01:31:43.161Z,16.65
2022-08-10T01:34:13.354Z,18.14
2022-08-10T01:36:50.539Z,17.92
2022-08-10T01:39:26.128Z,14.79
2022-08-10T01:41:56.926Z,17.99
2022-08-10T01:44:42.341Z,17.98
2022-08-10T01:47:30.479Z,17.94
2022-08-10T01:50:34.136Z,15.88
2022-08-10T01:53:26.176Z,17.01
2022-08-10T01:55:55.138Z,17.41
2022-08-10T01:58:23.156Z,17.25
2022-08-10T02:00:51.799Z,17.88
2022-08-10T02:03:21.916Z,16.60
2022-08-10T02:05:54.325Z,17.77
2022-08-10T02:08:23.894Z,16.22
2022-08-10T02:10:51.877Z,17.67
2022-08-10T02:13:19.804Z,17.59
2022-08-10T02:16:01.974Z,17.56
2022-08-10T02:18:30.523Z,17.16
2022-08-10T02:21:00.183Z,16.62
2022-08-10T02:23:29.729Z,14.01
2022-08-10T02:25:59.450Z,17.56
2022-08-10T02:28:30.208Z,17.32
2022-08-10T02:31:02.035Z,16.90
2022-08-10T02:33:30.158Z,17.08
2022-08-10T02:36:00.161Z,16.68
2022-08-10T02:38:58.464Z,14.66
2022-08-10T02:45:12.376Z,17.65
2022-08-10T02:45:21.100Z,16.95
2022-08-10T02:47:51.005Z,17.68
2022-08-10T02:50:28.509Z,16.42
2022-08-10T02:53:01.454Z,17.14
2022-08-10T02:55:32.821Z,17.63
2022-08-10T02:58:17.570Z,17.61
2022-08-10T03:00:55.169Z,15.04
2022-08-10T03:03:26.967Z,16.26
2022-08-10T03:05:57.161Z,17.16
2022-08-10T03:08:27.375Z,16.73
2022-08-10T03:10:56.662Z,17.18
2022-08-10T03:13:24.839Z,16.43
2022-08-10T03:15:51.903Z,14.29
2022-08-10T03:18:19.779Z,12.98
2022-08-10T03:20:48.173Z,17.33
2022-08-10T03:23:17.123Z,16.44
2022-08-10T03:25:54.241Z,16.91
2022-08-10T03:28:28.163Z,16.93
2022-08-10T03:30:56.270Z,16.71
2022-08-10T03:33:24.989Z,17.08
2022-08-10T03:36:41.485Z,13.00
2022-08-10T03:38:46.077Z,16.22
2022-08-10T03:41:16.192Z,16.90
2022-08-10T03:43:45.308Z,13.90
2022-08-10T03:46:13.703Z,15.67
2022-08-10T03:48:48.477Z,16.95
2022-08-10T03:51:19.175Z,16.19
2022-08-10T03:54:05.771Z,16.38
2022-08-10T03:56:38.534Z,15.12
2022-08-10T03:59:11.282Z,16.65
2022-08-10T04:02:46.822Z,16.69
2022-08-10T04:04:26.297Z,16.28
2022-08-10T04:06:58.856Z,15.96
2022-08-10T04:09:53.420Z,16.77
2022-08-10T04:12:17.168Z,16.61
2022-08-10T04:15:21.699Z,16.81
2022-08-10T04:18:05.018Z,16.60
2022-08-10T04:20:45.848Z,16.35
2022-08-10T04:23:19.178Z,16.15
2022-08-10T04:25:46.246Z,15.89
2022-08-10T04:28:13.601Z,16.28
2022-08-10T04:30:41.394Z,16.86
2022-08-10T04:33:08.740Z,13.61
2022-08-10T04:35:37.468Z,17.09
2022-08-10T04:38:06.629Z,16.72
2022-08-10T04:40:33.708Z,15.96
2022-08-10T04:43:10.452Z,17.31
2022-08-10T04:45:49.322Z,16.09
2022-08-10T04:48:42.813Z,13.31
2022-08-10T04:51:18.912Z,14.80
2022-08-10T04:54:04.905Z,17.30
2022-08-10T04:56:36.543Z,15.22
2022-08-10T04:59:05.225Z,17.82
2022-08-10T05:02:29.770Z,17.89
2022-08-10T05:04:35.577Z,17.99
2022-08-10T05:07:08.621Z,16.79
2022-08-10T05:10:03.971Z,18.19
2022-08-10T05:12:23.338Z,18.06
2022-08-10T05:14:52.153Z,18.32
2022-08-10T05:17:20.121Z,15.32
2022-08-10T05:20:04.045Z,17.95
2022-08-10T05:22:38.514Z,17.26
2022-08-10T05:25:08.009Z,18.98
2022-08-10T05:27:35.604Z,19.23
2022-08-10T05:30:03.818Z,18.76
2022-08-10T05:32:34.429Z,21.44
2022-08-10T05:35:22.262Z,18.63
2022-08-10T05:38:09.273Z,21.42
2022-08-10T05:40:42.537Z,24.89
2022-08-10T05:43:21.960Z,26.09
2022-08-10T05:46:19.328Z,25.30
2022-08-10T05:48:55.532Z,26.36
2022-08-10T05:51:26.670Z,24.59
2022-08-10T05:54:03.320Z,28.63
2022-08-10T05:56:53.529Z,30.04
2022-08-10T06:00:35.178Z,30.79
2022-08-10T06:02:31.283Z,31.99
2022-08-10T06:05:08.097Z,31.78
2022-08-10T06:07:40.269Z,33.08
2022-08-10T06:10:10.463Z,34.98
2022-08-10T06:12:55.398Z,35.64
2022-08-10T06:15:50.296Z,34.75
2022-08-10T06:18:14.431Z,34.99
2022-08-10T06:20:42.397Z,33.87
2022-08-10T06:23:10.358Z,35.92
2022-08-10T06:26:12.119Z,34.83
2022-08-10T06:28:31.155Z,35.80
2022-08-10T06:31:00.325Z,36.28
2022-08-10T06:33:31.606Z,36.10
2022-08-10T06:36:00.733Z,35.69
2022-08-10T06:38:30.832Z,36.28
2022-08-10T06:41:00.534Z,36.49
2022-08-10T06:43:28.552Z,34.75
2022-08-10T06:46:07.459Z,37.40
2022-08-10T06:48:47.897Z,37.19
2022-08-10T06:51:23.994Z,37.47
2022-08-10T06:53:55.333Z,37.39
2022-08-10T06:56:35.832Z,36.13
2022-08-10T06:59:37.280Z,38.63
2022-08-10T07:02:08.383Z,35.49
2022-08-10T07:04:42.675Z,38.22
2022-08-10T07:07:11.366Z,38.39
2022-08-10T07:09:40.186Z,38.03
2022-08-10T07:12:09.559Z,37.80
2022-08-10T07:14:40.186Z,37.50
2022-08-10T07:17:15.845Z,38.82
2022-08-10T07:19:49.583Z,37.54
2022-08-10T07:23:05.905Z,38.91
2022-08-10T07:25:26.285Z,38.67
2022-08-10T07:28:01.087Z,37.26
2022-08-10T07:30:33.064Z,37.52
2022-08-10T07:33:02.442Z,37.68
2022-08-10T07:35:34.750Z,39.33
2022-08-10T07:38:05.696Z,37.69
2022-08-10T07:40:33.999Z,40.04
2022-08-10T07:43:02.678Z,37.05
2022-08-10T07:45:33.135Z,38.64
2022-08-10T07:48:07.539Z,40.46
2022-08-10T07:50:40.272Z,38.78
2022-08-10T07:53:13.651Z,37.89
2022-08-10T07:56:05.457Z,37.16
2022-08-10T07:58:36.085Z,37.49
2022-08-10T08:01:05.422Z,34.51
2022-08-10T08:03:33.985Z,33.22
2022-08-10T08:06:05.190Z,34.08
2022-08-10T08:08:40.152Z,36.75
2022-08-10T08:11:08.886Z,38.39
2022-08-10T08:13:38.044Z,38.02
2022-08-10T08:16:18.687Z,38.99
2022-08-10T08:18:58.098Z,38.71
2022-08-10T08:24:11.140Z,40.21
2022-08-10T08:24:30.758Z,40.66
2022-08-10T08:27:04.755Z,40.61
2022-08-10T08:29:34.550Z,40.48
2022-08-10T08:32:03.602Z,39.70
2022-08-10T08:34:34.068Z,40.13
2022-08-10T08:37:03.049Z,40.05
2022-08-10T08:39:32.003Z,39.63
2022-08-10T08:42:37.530Z,39.74
2022-08-10T08:45:24.073Z,39.50
2022-08-10T08:48:04.644Z,39.75
2022-08-10T08:50:45.986Z,40.55
2022-08-10T08:54:01.970Z,40.76
2022-08-10T08:56:22.067Z,39.29
2022-08-10T08:59:19.379Z,40.26
2022-08-10T09:02:27.776Z,40.07
2022-08-10T09:05:00.852Z,40.49
2022-08-10T09:08:01.852Z,40.60
2022-08-10T09:10:55.341Z,40.23
2022-08-10T09:13:27.069Z,40.70
2022-08-10T09:16:29.628Z,41.04
2022-08-10T09:19:03.462Z,41.23
2022-08-10T09:21:58.947Z,41.09
2022-08-10T09:24:40.562Z,41.04
2022-08-10T09:27:12.310Z,41.14
2022-08-10T09:29:47.879Z,40.06
2022-08-10T09:36:16.061Z,41.21
2022-08-10T09:36:22.105Z,40.91
2022-08-10T09:38:30.560Z,40.78
2022-08-10T09:41:04.054Z,39.10
2022-08-10T09:43:50.018Z,36.99
2022-08-10T09:46:47.293Z,37.45
2022-08-10T09:49:54.443Z,37.88
2022-08-10T09:52:35.215Z,37.64
2022-08-10T09:55:21.741Z,37.26
2022-08-10T09:58:12.591Z,38.63
2022-08-10T10:00:46.692Z,38.74
2022-08-10T10:03:58.251Z,38.45
2022-08-10T10:06:37.368Z,38.50
2022-08-10T10:09:39.934Z,37.83
2022-08-10T10:12:28.730Z,37.51
2022-08-10T10:15:27.927Z,36.49
2022-08-10T10:18:11.428Z,35.32
2022-08-10T10:20:48.033Z,34.40
2022-08-10T10:23:40.117Z,33.46
2022-08-10T10:26:42.000Z,32.97
2022-08-10T10:29:57.109Z,33.00
2022-08-10T10:32:22.523Z,32.89
2022-08-10T10:34:54.371Z,32.83
2022-08-10T10:38:10.165Z,30.12
2022-08-10T10:40:10.463Z,32.53
2022-08-10T10:42:55.387Z,31.58
2022-08-10T10:45:32.420Z,33.02
2022-08-10T10:48:09.177Z,32.58
2022-08-10T10:51:11.069Z,32.34
2022-08-10T10:53:50.383Z,32.57
2022-08-10T10:56:24.588Z,31.98
2022-08-10T10:59:54.457Z,31.33
2022-08-10T11:01:57.332Z,32.13
2022-08-10T11:04:29.995Z,29.55
2022-08-10T11:07:05.541Z,31.50
2022-08-10T11:10:04.651Z,31.65
2022-08-10T11:12:45.085Z,32.21
2022-08-10T11:15:42.824Z,31.76
2022-08-10T11:18:25.525Z,31.59
2022-08-10T11:21:37.664Z,29.21
2022-08-10T11:24:48.978Z,31.02
2022-08-10T11:27:04.965Z,30.63
2022-08-10T11:29:45.317Z,30.70
2022-08-10T11:32:25.080Z,28.02
2022-08-10T11:35:10.366Z,31.32
2022-08-10T11:38:30.926Z,30.62
2022-08-10T11:42:07.118Z,30.60
2022-08-10T11:44:15.815Z,31.21
2022-08-10T11:46:50.421Z,28.82
2022-08-10T11:49:31.615Z,31.64
2022-08-10T11:52:12.195Z,30.72
2022-08-10T11:54:52.834Z,31.91
2022-08-10T11:57:21.152Z,30.65
2022-08-10T11:59:58.012Z,28.91
2022-08-10T12:02:36.292Z,32.07
2022-08-10T12:05:23.954Z,32.13
2022-08-10T12:10:02.350Z,27.93
2022-08-10T12:10:59.392Z,29.81
2022-08-10T12:13:31.241Z,26.41
2022-08-10T12:16:10.941Z,29.47
2022-08-10T12:18:46.203Z,31.39
2022-08-10T12:21:21.843Z,28.85
2022-08-10T12:24:02.470Z,29.05
2022-08-10T12:26:38.063Z,29.60
2022-08-10T12:29:14.258Z,31.70
2022-08-10T12:31:48.504Z,31.20
2022-08-10T12:34:41.128Z,29.43
2022-08-10T12:37:18.015Z,31.19
2022-08-10T12:44:06.948Z,31.64
2022-08-10T12:46:10.952Z,31.58
2022-08-10T12:48:44.013Z,31.23
2022-08-10T12:51:17.507Z,30.79
2022-08-10T12:54:01.946Z,31.26
2022-08-10T12:56:38.013Z,30.97
2022-08-10T12:59:13.254Z,30.86
2022-08-10T13:02:06.964Z,31.03
2022-08-10T13:04:36.659Z,28.38
2022-08-10T13:07:06.063Z,30.84
2022-08-10T13:09:34.613Z,31.71
2022-08-10T13:12:39.504Z,28.91
2022-08-10T13:15:45.457Z,29.00
2022-08-10T13:18:04.028Z,30.76
2022-08-10T13:20:34.820Z,28.88
2022-08-10T13:23:16.176Z,31.41
2022-08-10T13:25:48.719Z,30.52
2022-08-10T13:28:36.542Z,31.18
2022-08-10T13:31:17.081Z,30.72
2022-08-10T13:34:35.839Z,32.17
2022-08-10T13:36:39.706Z,31.95
2022-08-10T13:39:08.454Z,30.90
2022-08-10T13:41:39.433Z,32.34
2022-08-10T13:44:07.605Z,32.08
2022-08-10T13:46:41.210Z,28.94
2022-08-10T13:49:09.927Z,29.97
2022-08-10T13:51:54.323Z,30.36
2022-08-10T13:54:37.433Z,31.84
2022-08-10T13:57:06.060Z,31.71
2022-08-10T14:00:34.326Z,28.92
2022-08-10T14:02:32.071Z,31.76
2022-08-10T14:04:59.690Z,32.40
2022-08-10T14:07:28.021Z,32.36
2022-08-10T14:10:00.818Z,31.82
2022-08-10T14:12:32.011Z,32.16
2022-08-10T14:15:03.613Z,32.20
2022-08-10T14:17:31.988Z,30.93
2022-08-10T14:20:00.169Z,31.49
2022-08-10T14:22:33.826Z,31.61
2022-08-10T14:25:12.993Z,32.37
2022-08-10T14:28:03.700Z,32.26
2022-08-10T14:30:32.404Z,32.36
2022-08-10T14:33:04.959Z,31.14
2022-08-10T14:36:19.685Z,31.16
2022-08-10T14:38:32.330Z,30.90
2022-08-10T14:41:02.493Z,31.66
2022-08-10T14:43:40.477Z,32.60
2022-08-10T14:46:11.134Z,31.05
2022-08-10T14:48:43.657Z,30.86
2022-08-10T14:51:12.954Z,32.37
2022-08-10T14:53:45.473Z,31.70
2022-08-10T14:56:14.944Z,30.11
2022-08-10T14:59:05.467Z,30.88
2022-08-10T15:02:38.422Z,31.20
2022-08-10T15:04:28.942Z,32.29
2022-08-10T15:07:12.273Z,31.51
2022-08-10T15:09:59.799Z,31.93
2022-08-10T15:12:32.997Z,30.16
2022-08-10T15:15:01.485Z,31.35
2022-08-10T15:17:36.054Z,32.26
2022-08-10T15:20:21.135Z,32.45
2022-08-10T15:22:51.359Z,30.17
2022-08-10T15:25:25.298Z,32.04
2022-08-10T15:28:05.517Z,29.96
2022-08-10T15:30:40.656Z,29.86
2022-08-10T15:33:59.366Z,31.54
2022-08-10T15:36:37.935Z,32.40
2022-08-10T15:40:22.612Z,31.03
2022-08-10T15:42:08.905Z,32.19
2022-08-10T15:44:44.838Z,31.32
2022-08-10T15:47:27.526Z,32.31
2022-08-10T15:50:35.350Z,32.15
2022-08-10T15:53:33.865Z,31.24
2022-08-10T15:56:49.985Z,32.14
2022-08-10T15:59:31.624Z,32.03
2022-08-10T16:02:15.969Z,31.02
2022-08-10T16:04:52.252Z,32.06
2022-08-10T16:07:45.859Z,32.09
2022-08-10T16:10:26.622Z,31.71
2022-08-10T16:13:59.248Z,31.85
2022-08-10T16:15:55.736Z,30.96
2022-08-10T16:18:32.472Z,31.79
2022-08-10T16:21:02.492Z,29.76
2022-08-10T16:23:32.654Z,31.91
2022-08-10T16:26:24.510Z,31.94
2022-08-10T16:29:05.077Z,29.72
2022-08-10T16:31:33.937Z,29.83
2022-08-10T16:34:04.218Z,31.69
2022-08-10T16:36:46.354Z,28.03
2022-08-10T16:39:58.598Z,31.43
2022-08-10T16:42:18.526Z,31.18
2022-08-10T16:45:02.503Z,31.14
2022-08-10T16:47:31.419Z,31.09
2022-08-10T16:50:00.907Z,28.71
2022-08-10T16:52:29.843Z,30.70
2022-08-10T16:55:08.480Z,30.97
2022-08-10T16:57:50.404Z,30.17
2022-08-10T17:00:22.842Z,30.70
2022-08-10T17:02:56.988Z,30.00
2022-08-10T17:06:09.554Z,29.66
2022-08-10T17:08:16.991Z,30.59
2022-08-10T17:10:44.052Z,29.46
2022-08-10T17:13:12.082Z,29.31
2022-08-10T17:15:41.823Z,29.93
2022-08-10T17:18:27.648Z,30.08
2022-08-10T17:21:06.859Z,29.40
2022-08-10T17:23:35.893Z,27.46
2022-08-10T17:26:06.712Z,28.62
2022-08-10T17:28:36.994Z,27.31
2022-08-10T17:31:31.781Z,29.66
2022-08-10T17:34:05.537Z,28.67
2022-08-10T17:36:36.307Z,29.30
2022-08-10T17:39:05.343Z,28.47
2022-08-10T17:41:33.724Z,25.62
2022-08-10T17:44:04.142Z,26.83
2022-08-10T17:46:38.839Z,29.43
2022-08-10T17:49:08.643Z,27.92
2022-08-10T17:51:37.544Z,29.14
2022-08-10T17:57:24.908Z,27.75
2022-08-10T17:59:55.159Z,25.28
2022-08-10T18:02:26.646Z,28.15
2022-08-10T18:04:57.284Z,28.04
2022-08-10T18:07:32.760Z,27.37
2022-08-10T18:10:04.451Z,25.91
2022-08-10T18:12:42.571Z,25.66
2022-08-10T18:15:13.648Z,24.76
2022-08-10T18:17:45.557Z,24.39
2022-08-10T18:20:20.343Z,28.17
2022-08-10T18:23:00.917Z,27.85
2022-08-10T18:25:33.686Z,22.91
2022-08-10T18:28:05.706Z,27.96
2022-08-10T18:30:45.780Z,27.87
2022-08-10T18:33:14.020Z,27.78
2022-08-10T18:35:45.475Z,24.90
2022-08-10T18:38:16.059Z,25.75
2022-08-10T18:40:45.132Z,22.44
2022-08-10T18:44:11.897Z,25.18
2022-08-10T18:46:01.431Z,26.31
2022-08-10T18:48:42.526Z,27.16
2022-08-10T18:51:11.009Z,26.29
2022-08-10T18:53:48.610Z,25.38
2022-08-10T18:56:34.380Z,26.97
2022-08-10T18:59:13.231Z,26.89
2022-08-10T19:01:44.420Z,26.77
2022-08-10T19:04:31.770Z,26.69
2022-08-10T19:07:03.372Z,26.63
2022-08-10T19:09:48.364Z,26.65
2022-08-10T19:12:47.594Z,26.51
2022-08-10T19:15:34.079Z,26.49
2022-08-10T19:18:36.619Z,26.39
2022-08-10T19:21:32.242Z,26.32
2022-08-10T19:24:26.608Z,26.32
2022-08-10T19:27:22.675Z,26.22
2022-08-10T19:30:12.345Z,25.75
2022-08-10T19:32:46.626Z,26.03
2022-08-10T19:35:19.391Z,26.05
2022-08-10T19:41:10.507Z,25.83
2022-08-10T19:44:00.241Z,22.39
2022-08-10T19:46:52.991Z,25.21
2022-08-10T19:49:41.948Z,25.68
2022-08-10T19:52:25.011Z,24.26
2022-08-10T19:55:01.030Z,25.55
2022-08-10T19:57:59.469Z,24.11
2022-08-10T20:00:55.362Z,25.61
2022-08-10T20:03:46.251Z,25.62
2022-08-10T20:06:20.099Z,25.57
2022-08-10T20:08:57.563Z,25.49
2022-08-10T20:11:46.357Z,25.34
2022-08-10T20:14:34.845Z,25.35
2022-08-10T20:17:10.050Z,25.27
2022-08-10T20:19:54.875Z,25.26
2022-08-10T20:22:29.502Z,20.92
2022-08-10T20:25:16.557Z,24.54
2022-08-10T20:28:06.823Z,24.95
2022-08-10T20:30:36.833Z,24.82
2022-08-10T20:33:11.365Z,24.71
2022-08-10T20:36:09.823Z,24.76
2022-08-10T20:38:51.127Z,24.81
2022-08-10T20:41:25.812Z,24.72
2022-08-10T20:44:15.418Z,24.66
2022-08-10T20:46:55.198Z,24.47
2022-08-10T20:49:49.633Z,24.49
2022-08-10T20:52:17.560Z,23.32
2022-08-10T20:54:52.661Z,23.43
2022-08-10T20:57:55.053Z,21.66
2022-08-10T21:00:36.716Z,24.37
2022-08-10T21:03:31.798Z,24.35
2022-08-10T21:06:43.392Z,24.26
2022-08-10T21:09:38.581Z,23.96
2022-08-10T21:12:38.414Z,23.74
2022-08-10T21:15:27.203Z,23.42
2022-08-10T21:18:32.698Z,24.02
2022-08-10T21:21:12.612Z,23.96
2022-08-10T21:23:50.895Z,23.50
2022-08-10T21:26:50.775Z,23.08
2022-08-10T21:29:55.866Z,23.37
2022-08-10T21:32:51.465Z,23.79
2022-08-10T21:35:44.378Z,23.73
2022-08-10T21:39:20.121Z,23.61
2022-08-10T21:42:17.637Z,23.25
2022-08-10T21:45:58.040Z,23.42
2022-08-10T21:48:57.216Z,22.71
2022-08-10T21:52:01.612Z,22.90
2022-08-10T21:55:08.581Z,23.23
2022-08-10T21:58:11.606Z,23.09
2022-08-10T22:01:11.696Z,22.92
2022-08-10T22:04:02.593Z,21.62
2022-08-10T22:06:52.197Z,21.77
2022-08-10T22:09:43.643Z,21.34
2022-08-10T22:12:33.588Z,21.54
2022-08-10T22:16:03.803Z,22.55
2022-08-10T22:18:59.517Z,20.87
2022-08-10T22:21:59.716Z,22.39
2022-08-10T22:25:01.687Z,20.95
2022-08-10T22:27:55.354Z,21.51
2022-08-10T22:30:43.271Z,21.77
2022-08-10T22:33:42.094Z,22.12
2022-08-10T22:36:50.374Z,22.00
2022-08-10T22:40:07.339Z,21.16
2022-08-10T22:42:59.499Z,21.05
2022-08-10T22:45:49.760Z,21.13
2022-08-10T22:48:35.194Z,21.76
2022-08-10T22:51:09.609Z,21.70
2022-08-10T22:54:31.025Z,21.60
2022-08-10T22:57:20.634Z,21.56
2022-08-10T22:59:47.934Z,21.32
2022-08-10T23:02:28.520Z,20.98
2022-08-10T23:05:09.549Z,21.58
2022-08-10T23:07:46.495Z,20.05
2022-08-10T23:10:15.933Z,21.37
2022-08-10T23:13:35.388Z,19.47
2022-08-10T23:16:23.614Z,20.36
2022-08-10T23:19:11.658Z,19.83
2022-08-10T23:22:03.840Z,20.93
2022-08-10T23:24:48.379Z,20.01
2022-08-10T23:27:39.013Z,17.87
2022-08-10T23:30:10.326Z,20.64
2022-08-10T23:32:45.608Z,20.75
2022-08-10T23:36:12.947Z,20.46
2022-08-10T23:38:03.913Z,18.99
2022-08-10T23:40:34.291Z,19.69
2022-08-10T23:43:01.912Z,20.43
2022-08-10T23:45:52.737Z,19.30
2022-08-10T23:48:20.660Z,20.27
2022-08-10T23:50:53.266Z,19.00
2022-08-10T23:53:32.164Z,19.22
2022-08-10T23:56:06.850Z,19.66
2022-08-10T23:58:44.837Z,19.69
